createdAt,value
2018-12-20T00:01:39.669Z,101088.98
2018-12-20T00:04:10.463Z,101089.83
2018-12-20T00:06:41.326Z,101091.38
2018-12-20T00:09:12.319Z,101094.73
2018-12-20T00:11:43.158Z,101095.72
2018-12-20T00:14:15.174Z,101099.41
2018-12-20T00:16:47.741Z,101090.45
2018-12-20T00:19:18.393Z,101097.73
2018-12-20T00:21:49.497Z,101099.88
2018-12-20T00:24:20.200Z,101089.28
2018-12-20T00:26:51.380Z,101090.14
2018-12-20T00:29:22.137Z,101096.10
2018-12-20T00:31:52.751Z,101087.27
2018-12-20T00:34:23.755Z,101091.73
2018-12-20T00:36:54.438Z,101088.59
2018-12-20T00:39:24.988Z,101089.55
2018-12-20T00:41:55.569Z,101086.62
2018-12-20T00:44:27.007Z,101085.37
2018-12-20T00:46:57.861Z,101087.59
2018-12-20T00:49:28.726Z,101093.34
2018-12-20T00:51:59.690Z,101091.55
2018-12-20T00:54:31.075Z,101091.59
2018-12-20T00:57:02.907Z,101090.22
2018-12-20T00:59:33.797Z,101096.48
2018-12-20T01:02:05.642Z,101093.38
2018-12-20T01:04:36.665Z,101084.94
2018-12-20T01:07:08.299Z,101092.93
2018-12-20T01:09:38.904Z,101092.20
2018-12-20T01:12:09.504Z,101092.77
2018-12-20T01:14:45.329Z,101093.27
2018-12-20T01:17:13.533Z,101094.60
2018-12-20T01:19:44.129Z,101098.98
2018-12-20T01:22:14.951Z,101090.19
2018-12-20T01:24:45.705Z,101104.98
2018-12-20T01:27:16.838Z,101100.91
2018-12-20T01:29:47.599Z,101100.82
2018-12-20T01:32:18.436Z,101108.93
2018-12-20T01:34:49.209Z,101113.08
2018-12-20T01:37:19.755Z,101110.89
2018-12-20T01:39:50.618Z,101102.56
2018-12-20T01:42:21.246Z,101108.16
2018-12-20T01:44:53.590Z,101112.88
2018-12-20T01:47:24.425Z,101110.59
2018-12-20T01:49:54.955Z,101103.79
2018-12-20T01:52:25.513Z,101108.88
2018-12-20T01:58:28.176Z,101111.20
2018-12-20T02:00:58.992Z,101105.63
2018-12-20T02:03:29.650Z,101104.00
2018-12-20T02:06:00.403Z,101102.42
2018-12-20T02:08:30.930Z,101100.23
2018-12-20T02:11:01.665Z,101098.73
2018-12-20T02:13:32.343Z,101100.66
2018-12-20T02:16:02.907Z,101104.65
2018-12-20T02:18:33.485Z,101098.17
2018-12-20T02:21:04.076Z,101100.66
2018-12-20T02:23:34.870Z,101100.10
2018-12-20T02:26:05.526Z,101097.05
2018-12-20T02:28:36.304Z,101092.38
2018-12-20T02:31:07.139Z,101089.84
2018-12-20T02:33:38.013Z,101090.41
2018-12-20T02:36:08.843Z,101090.75
2018-12-20T02:38:39.518Z,101089.93
2018-12-20T02:41:10.153Z,101092.59
2018-12-20T02:43:40.883Z,101082.98
2018-12-20T02:46:11.549Z,101088.72
2018-12-20T02:48:42.353Z,101086.74
2018-12-20T02:51:13.104Z,101086.28
2018-12-20T02:53:43.813Z,101077.44
2018-12-20T02:56:14.398Z,101082.81
2018-12-20T02:58:45.065Z,101078.17
2018-12-20T03:01:15.805Z,101075.05
2018-12-20T03:03:46.760Z,101069.55
2018-12-20T03:06:17.540Z,101077.97
2018-12-20T03:08:48.467Z,101070.03
2018-12-20T03:11:19.070Z,101071.45
2018-12-20T03:13:49.666Z,101074.11
2018-12-20T03:16:20.313Z,101071.36
2018-12-20T03:18:51.134Z,101076.11
2018-12-20T03:21:22.016Z,101071.27
2018-12-20T03:23:52.857Z,101074.49
2018-12-20T03:26:23.457Z,101073.63
2018-12-20T03:28:54.094Z,101081.87
2018-12-20T03:31:24.625Z,101078.22
2018-12-20T03:33:55.236Z,101077.11
2018-12-20T03:36:26.799Z,101075.30
2018-12-20T03:38:57.320Z,101064.49
2018-12-20T03:41:27.840Z,101070.23
2018-12-20T03:43:58.464Z,101070.45
2018-12-20T03:46:29.181Z,101067.37
2018-12-20T03:52:06.198Z,101068.60
2018-12-20T03:54:36.636Z,101071.73
2018-12-20T03:57:07.170Z,101072.02
2018-12-20T03:59:37.997Z,101069.87
2018-12-20T04:02:08.489Z,101069.66
2018-12-20T04:04:39.098Z,101079.12
2018-12-20T04:07:09.797Z,101076.43
2018-12-20T04:09:41.289Z,101067.13
2018-12-20T04:12:11.873Z,101074.67
2018-12-20T04:14:42.571Z,101071.67
2018-12-20T04:17:13.702Z,101069.36
2018-12-20T04:19:44.179Z,101061.85
2018-12-20T04:22:14.834Z,101061.78
2018-12-20T04:24:45.783Z,101057.53
2018-12-20T04:27:16.811Z,101049.87
2018-12-20T04:29:47.664Z,101058.41
2018-12-20T04:32:18.325Z,101059.73
2018-12-20T04:34:49.567Z,101060.92
2018-12-20T04:37:20.294Z,101056.30
2018-12-20T04:39:51.361Z,101047.55
2018-12-20T04:42:22.315Z,101046.73
2018-12-20T04:44:52.987Z,101040.14
2018-12-20T04:47:23.632Z,101038.33
2018-12-20T04:49:54.926Z,101042.20
2018-12-20T04:52:26.007Z,101058.23
2018-12-20T04:54:57.480Z,101064.07
2018-12-20T04:57:28.263Z,101063.42
2018-12-20T04:59:59.528Z,101059.52
2018-12-20T05:02:30.291Z,101065.43
2018-12-20T05:05:01.039Z,101059.86
2018-12-20T05:07:31.776Z,101064.71
2018-12-20T05:10:02.547Z,101060.30
2018-12-20T05:12:33.252Z,101062.86
2018-12-20T05:15:04.022Z,101064.45
2018-12-20T05:17:34.618Z,101061.95
2018-12-20T05:20:05.813Z,101072.62
2018-12-20T05:22:36.503Z,101069.07
2018-12-20T05:25:07.411Z,101062.27
2018-12-20T05:27:37.900Z,101073.38
2018-12-20T05:30:09.835Z,101074.14
2018-12-20T05:32:40.618Z,101066.08
2018-12-20T05:35:11.566Z,101063.20
2018-12-20T05:37:42.554Z,101065.52
2018-12-20T05:40:13.321Z,101066.30
2018-12-20T05:42:44.047Z,101066.12
2018-12-20T05:45:15.250Z,101063.47
2018-12-20T05:47:45.895Z,101064.97
2018-12-20T05:50:16.625Z,101065.78
2018-12-20T05:52:47.093Z,101065.22
2018-12-20T05:55:17.630Z,101063.94
2018-12-20T05:57:48.176Z,101066.25
2018-12-20T06:00:18.736Z,101067.63
2018-12-20T06:02:49.580Z,101060.63
2018-12-20T06:05:20.325Z,101063.06
2018-12-20T06:07:51.880Z,101065.64
2018-12-20T06:10:22.589Z,101065.67
2018-12-20T06:12:53.559Z,101062.12
2018-12-20T06:15:24.199Z,101063.45
2018-12-20T06:17:55.168Z,101059.45
2018-12-20T06:20:26.243Z,101058.87
2018-12-20T06:22:57.670Z,101058.31
2018-12-20T06:25:28.406Z,101054.45
2018-12-20T06:27:59.221Z,101058.02
2018-12-20T06:30:29.796Z,101054.29
2018-12-20T06:33:00.521Z,101052.91
2018-12-20T06:35:32.271Z,101051.24
2018-12-20T06:38:02.848Z,101055.48
2018-12-20T06:40:33.545Z,101054.31
2018-12-20T06:43:04.530Z,101056.84
2018-12-20T06:45:35.276Z,101067.09
2018-12-20T06:48:06.081Z,101065.25
2018-12-20T06:50:36.700Z,101058.64
2018-12-20T06:53:07.402Z,101063.75
2018-12-20T06:55:38.673Z,101062.12
2018-12-20T06:58:09.865Z,101056.45
2018-12-20T07:00:40.438Z,101061.78
2018-12-20T07:03:10.968Z,101059.51
2018-12-20T07:05:42.787Z,101067.05
2018-12-20T07:08:13.329Z,101060.32
2018-12-20T07:10:44.159Z,101055.31
2018-12-20T07:13:15.774Z,101063.89
2018-12-20T07:15:46.743Z,101062.56
2018-12-20T07:18:17.550Z,101060.94
2018-12-20T07:21:16.095Z,101066.84
2018-12-20T07:24:14.538Z,101065.95
2018-12-20T07:26:45.083Z,101059.14
2018-12-20T07:29:16.264Z,101072.22
2018-12-20T07:31:46.875Z,101065.18
2018-12-20T07:34:17.580Z,101066.94
2018-12-20T07:36:48.610Z,101066.90
2018-12-20T07:39:19.981Z,101068.88
2018-12-20T07:41:51.760Z,101069.42
2018-12-20T07:44:22.744Z,101069.03
2018-12-20T07:46:54.283Z,101070.70
2018-12-20T07:49:26.204Z,101074.56
2018-12-20T07:51:56.935Z,101075.44
2018-12-20T07:54:27.970Z,101073.94
2018-12-20T07:56:58.713Z,101076.67
2018-12-20T07:59:29.373Z,101075.77
2018-12-20T08:02:00.133Z,101080.54
2018-12-20T08:04:31.105Z,101085.25
2018-12-20T08:07:02.048Z,101080.97
2018-12-20T08:09:32.987Z,101081.52
2018-12-20T08:12:03.935Z,101068.61
2018-12-20T08:14:34.589Z,101072.38
2018-12-20T08:17:06.068Z,101080.38
2018-12-20T08:19:36.918Z,101077.75
2018-12-20T08:22:08.023Z,101071.06
2018-12-20T08:24:39.682Z,101078.22
2018-12-20T08:27:10.557Z,101080.87
2018-12-20T08:29:41.167Z,101083.19
2018-12-20T08:32:12.376Z,101085.25
2018-12-20T08:34:43.099Z,101084.28
2018-12-20T08:37:13.917Z,101092.92
2018-12-20T08:39:44.719Z,101084.06
2018-12-20T08:42:16.205Z,101093.28
2018-12-20T08:44:46.938Z,101091.31
2018-12-20T08:47:18.024Z,101098.27
2018-12-20T08:49:48.713Z,101087.72
2018-12-20T08:52:20.837Z,101090.81
2018-12-20T08:54:52.537Z,101088.68
2018-12-20T08:57:23.575Z,101088.21
2018-12-20T08:59:54.443Z,101091.34
2018-12-20T09:02:27.817Z,101086.62
2018-12-20T14:01:14.877Z,100944.47
2018-12-20T14:39:55.118Z,100949.63
2018-12-20T14:42:48.767Z,100954.28
2018-12-20T14:45:25.136Z,100947.25
2018-12-20T14:47:55.820Z,100957.51
2018-12-20T14:50:26.640Z,100949.31
2018-12-20T14:52:57.181Z,100962.45
2018-12-20T14:55:27.855Z,100959.72
2018-12-20T14:58:24.004Z,100953.67
2018-12-20T15:00:58.903Z,100960.70
2018-12-20T15:03:29.897Z,100967.92
2018-12-20T15:06:00.787Z,100970.19
2018-12-20T15:08:31.407Z,100966.91
2018-12-20T15:11:10.074Z,100967.38
2018-12-20T15:14:09.339Z,100970.09
2018-12-20T15:16:39.939Z,100973.80
2018-12-20T15:19:14.922Z,100977.28
2018-12-20T15:21:49.162Z,100978.45
2018-12-20T15:24:20.163Z,100983.84
2018-12-20T15:26:51.304Z,100983.52
2018-12-20T15:29:23.294Z,100991.39
2018-12-20T15:32:00.251Z,100994.32
2018-12-20T15:34:39.223Z,100987.18
2018-12-20T15:47:02.279Z,100981.22
2018-12-20T15:49:41.751Z,100971.95
2018-12-20T15:52:07.967Z,100972.80
2018-12-20T15:54:38.733Z,100973.38
2018-12-20T15:57:09.384Z,100970.38
2018-12-20T15:59:48.690Z,100969.59
2018-12-20T16:02:20.396Z,100972.47
2018-12-20T16:04:51.417Z,100970.81
2018-12-20T16:07:22.135Z,100972.68
2018-12-20T16:09:57.239Z,100968.05
2018-12-20T16:15:11.551Z,100962.69
2018-12-20T16:17:42.320Z,100955.06
2018-12-20T16:20:13.877Z,100955.81
2018-12-20T16:22:44.698Z,100952.45
2018-12-20T16:25:15.752Z,100948.47
2018-12-20T16:27:47.312Z,100951.75
2018-12-20T16:30:19.693Z,100939.53
2018-12-20T16:32:51.596Z,100943.25
2018-12-20T16:51:45.542Z,100943.88
2018-12-20T16:54:16.227Z,100946.55
2018-12-20T16:56:47.206Z,100952.30
2018-12-20T16:59:19.113Z,100948.00
2018-12-20T17:01:50.140Z,100950.84
2018-12-20T17:04:21.421Z,100952.94
2018-12-20T17:10:09.617Z,100952.11
2018-12-20T17:12:41.415Z,100949.57
2018-12-20T17:15:16.104Z,100959.22
2018-12-20T17:17:48.693Z,100959.69
2018-12-20T17:20:19.748Z,100956.45
2018-12-20T17:22:50.791Z,100946.16
2018-12-20T17:25:21.811Z,100945.80
2018-12-20T17:27:56.598Z,100948.89
2018-12-20T17:30:28.918Z,100943.92
2018-12-20T17:33:01.322Z,100948.40
2018-12-20T17:35:33.565Z,100948.45
2018-12-20T17:38:05.318Z,100946.70
2018-12-20T17:40:40.742Z,100943.07
2018-12-20T17:43:20.213Z,100935.94
2018-12-20T17:45:52.586Z,100936.41
2018-12-20T17:48:29.011Z,100931.94
2018-12-20T17:54:28.044Z,100934.12
2018-12-20T18:00:36.859Z,100941.37
2018-12-20T18:09:54.339Z,100939.67
2018-12-20T18:12:35.565Z,100940.79
2018-12-20T18:15:31.908Z,100942.83
2018-12-20T18:18:15.652Z,100940.73
2018-12-20T18:20:52.286Z,100937.38
2018-12-20T18:23:23.456Z,100937.80
2018-12-20T18:25:58.224Z,100933.92
2018-12-20T18:28:42.283Z,100932.80
2018-12-20T18:31:25.280Z,100927.95
2018-12-20T18:34:02.973Z,100927.59
2018-12-20T18:36:52.968Z,100918.86
2018-12-20T18:42:36.138Z,100920.39
2018-12-20T18:45:11.386Z,100921.13
2018-12-20T18:47:48.172Z,100925.33
2018-12-20T18:50:32.611Z,100921.48
2018-12-20T18:53:12.348Z,100918.58
2018-12-20T18:55:49.892Z,100920.16
2018-12-20T19:01:29.975Z,100920.44
2018-12-20T19:04:09.739Z,100927.54
2018-12-20T19:06:44.197Z,100924.19
2018-12-20T19:09:27.237Z,100922.54
2018-12-20T19:12:26.039Z,100914.50
2018-12-20T19:15:08.546Z,100915.49
2018-12-20T19:17:45.439Z,100911.52
2018-12-20T19:20:33.122Z,100907.31
2018-12-20T19:23:23.143Z,100916.89
2018-12-20T19:26:13.767Z,100909.48
2018-12-20T19:28:50.297Z,100910.29
2018-12-20T19:31:28.385Z,100910.19
2018-12-20T19:34:09.574Z,100911.34
2018-12-20T19:36:48.208Z,100914.38
2018-12-20T19:39:29.376Z,100901.78
2018-12-20T19:42:15.399Z,100908.50
2018-12-20T19:45:04.548Z,100910.59
2018-12-20T19:47:41.109Z,100913.09
2018-12-20T19:50:22.216Z,100909.98
2018-12-20T19:53:15.894Z,100906.72
2018-12-20T19:56:02.383Z,100905.83
2018-12-20T20:05:32.025Z,100901.70
2018-12-20T20:08:16.607Z,100894.94
2018-12-20T20:20:47.189Z,100886.89
2018-12-20T20:33:14.181Z,100862.38
2018-12-20T20:42:31.581Z,100862.08
2018-12-20T20:45:10.388Z,100862.68
2018-12-20T20:47:49.846Z,100874.02
2018-12-20T20:50:32.631Z,100852.73
2018-12-20T20:53:25.234Z,100850.17
2018-12-20T20:56:05.010Z,100855.19
2018-12-20T21:01:59.314Z,100852.16
2018-12-20T21:04:32.914Z,100847.44
2018-12-20T21:07:10.661Z,100851.92
2018-12-20T21:13:03.441Z,100851.09
2018-12-20T21:15:38.195Z,100847.69
2018-12-20T21:18:25.980Z,100851.48
2018-12-20T21:21:10.326Z,100846.54
2018-12-20T21:23:50.910Z,100845.03
2018-12-20T21:29:50.853Z,100852.72
2018-12-20T21:32:39.179Z,100846.17
2018-12-20T21:35:32.232Z,100842.56
2018-12-20T21:38:11.068Z,100845.16
2018-12-20T21:40:52.219Z,100841.59
2018-12-20T21:43:28.833Z,100835.84
2018-12-20T21:46:17.812Z,100839.18
2018-12-20T21:48:58.295Z,100844.95
2018-12-20T21:51:34.744Z,100840.09
2018-12-20T21:57:21.634Z,100833.20
2018-12-20T22:00:01.272Z,100828.73
2018-12-20T22:02:36.817Z,100837.95
2018-12-20T22:05:13.830Z,100837.03
2018-12-20T22:07:48.105Z,100839.78
2018-12-20T22:10:20.779Z,100837.24
2018-12-20T22:12:55.203Z,100833.87
2018-12-20T22:15:38.957Z,100836.44
2018-12-20T22:18:19.292Z,100834.25
2018-12-20T22:20:58.088Z,100836.86
2018-12-20T22:23:32.385Z,100834.27
2018-12-20T22:26:06.349Z,100829.47
2018-12-20T22:29:05.672Z,100832.44
2018-12-20T22:31:49.268Z,100832.39
2018-12-20T22:34:32.569Z,100819.80
2018-12-20T22:37:06.945Z,100818.83
2018-12-20T22:39:41.549Z,100822.34
2018-12-20T22:42:24.571Z,100820.96
2018-12-20T22:45:06.691Z,100826.71
2018-12-20T22:47:45.741Z,100823.02
2018-12-20T22:50:22.004Z,100815.45
2018-12-20T22:53:10.998Z,100813.64
2018-12-20T22:55:44.676Z,100814.48
2018-12-20T22:58:19.520Z,100813.95
2018-12-20T23:00:56.281Z,100811.56
2018-12-20T23:03:39.194Z,100819.94
2018-12-20T23:06:13.264Z,100820.48
2018-12-20T23:08:47.493Z,100807.70
2018-12-20T23:11:30.469Z,100806.73
2018-12-20T23:14:19.210Z,100797.34
2018-12-20T23:16:53.772Z,100805.90
2018-12-20T23:19:30.202Z,100803.04
2018-12-20T23:22:11.343Z,100799.52
2018-12-20T23:24:44.155Z,100796.19
2018-12-20T23:27:21.370Z,100791.05
2018-12-20T23:29:59.285Z,100795.23
2018-12-20T23:32:32.234Z,100787.36
2018-12-20T23:35:09.303Z,100785.41
2018-12-20T23:37:50.142Z,100782.86
2018-12-20T23:40:29.067Z,100784.13
2018-12-20T23:43:09.841Z,100773.25
2018-12-20T23:45:47.381Z,100771.25
2018-12-20T23:49:33.411Z,100776.08
2018-12-20T23:52:15.845Z,100771.05
2018-12-20T23:54:55.968Z,100755.91
2018-12-20T23:57:45.215Z,100764.76
